Edward Brusco — WDC3064 — position and weather

sailwx.info

Track history (hours):
 
Tides and Currents Weather Stations Pressure Air Temp Water Temp Dewpoint Dewpoint Depression Visibility Wind Speed Wind Dir Waves Ship Positions

Edward Brusco

Owner: Brusco Tug & Barge, Inc., Longview, WA. More information available from US FCC via Universal Licensing System and Coast Guard Vessel Documentation Center.

Last reported at 2018-Feb-24 02:29 UTC. Time now 2018-Feb-25 17:41 UTC.
Position N 45°18' W 124°18'.

Length 37 m; draft 4.1 m.

Type: Tug. MMSI: 367002170.

Date/timePositionNaut miles runAvg speedWind from/ knotsBaromVisibWave heightAir tempDewpointWater temp
2018-Feb-24 02:29N 45°18' W 124°18'3 6.3
2018-Feb-24 02:00N 45°21' W 124°17'910.8
2018-Feb-24 01:11N 45°30' W 124°13'0 0.0
2018-Feb-24 00:48N 45°30' W 124°13'2 7.7
2018-Feb-24 00:30N 45°32' W 124°13'4 7.8
2018-Feb-24 00:00N 45°36' W 124°13'4 7.9
2018-Feb-23 23:30N 45°40' W 124°14'6 8.3
2018-Feb-23 22:45N 45°46' W 124°15'2 8.6
2018-Feb-23 22:31N 45°48' W 124°16'4 8.6
2018-Feb-23 22:00N 45°52' W 124°17'4 8.5
2018-Feb-23 21:30N 45°56' W 124°18'4 8.3
2018-Feb-23 21:00N 46°01' W 124°19'7 7.6
2018-Feb-23 20:07N 46°07' W 124°17'1 7.8
2018-Feb-23 20:00N 46°08' W 124°16'4 7.9
2018-Feb-23 19:30N 46°11' W 124°12'3 7.0
2018-Feb-23 19:00N 46°13' W 124°08'4 8.4
2018-Feb-23 18:31N 46°16' W 124°04'612.6
2018-Feb-23 18:00N 46°12' W 123°56'612.7
2018-Feb-23 17:30N 46°13' W 123°47'612.2
2018-Feb-23 17:01N 46°16' W 123°39'611.6
2018-Feb-23 16:30N 46°16' W 123°31'5 9.5
2018-Feb-23 16:00N 46°13' W 123°26'5 9.8
2018-Feb-23 15:30N 46°09' W 123°22'510.5
2018-Feb-23 15:00N 46°10' W 123°14'510.3
2018-Feb-23 14:30N 46°11' W 123°07'611.4
2018-Feb-23 14:01N 46°08' W 123°00'2 3.5
2018-Feb-23 13:30N 46°07' W 122°58'1 2.0
2018-Feb-23 13:01N 46°06' W 122°58'0 0.7
2018-Feb-23 12:31N 46°06' W 122°58'1 2.7
2018-Feb-23 12:01N 46°07' W 122°59'3 5.6
2018-Feb-23 11:31N 46°09' W 123°03'4 5.9
2018-Feb-23 10:47N 46°11' W 123°08'2 5.5
2018-Feb-23 10:23N 46°11' W 123°11'2 5.8
2018-Feb-23 10:00N 46°10' W 123°14'4 5.5
2018-Feb-23 09:15N 46°09' W 123°19'1 5.9
2018-Feb-23 09:01N 46°09' W 123°21'3 5.5
2018-Feb-23 08:31N 46°10' W 123°25'3 5.3
2018-Feb-23 08:00N 46°13' W 123°26'4 5.6
2018-Feb-23 07:16N 46°16' W 123°29'2 5.9
2018-Feb-23 07:00N 46°16' W 123°31'3 6.1
2018-Feb-23 06:26N 46°15' W 123°36'3 5.9
2018-Feb-23 06:00N 46°15' W 123°39'3 6.3
2018-Feb-23 05:30N 46°14' W 123°43'3 6.4
2018-Feb-23 05:00N 46°12' W 123°47'3 6.2
2018-Feb-23 04:30N 46°12' W 123°52'3 6.1
2018-Feb-23 04:01N 46°12' W 123°56'4 6.6
2018-Feb-23 03:27N 46°15' W 123°60'2 5.4
2018-Feb-23 03:01N 46°15' W 124°03'3 5.9
2018-Feb-23 02:29N 46°14' W 124°07'2 5.1
2018-Feb-23 02:00N 46°12' W 124°10'4 5.3
2018-Feb-23 01:16N 46°10' W 124°14'2 7.4
2018-Feb-23 01:00N 46°08' W 124°16'4 7.3
2018-Feb-23 00:30N 46°05' W 124°19'4 6.9
2018-Feb-22 23:54N 46°01' W 124°19'3 7.0
2018-Feb-22 23:30N 45°58' W 124°18'4 7.1
2018-Feb-22 23:01N 45°55' W 124°17'4 7.3
2018-Feb-22 22:30N 45°51' W 124°17'4 7.3
2018-Feb-22 22:00N 45°48' W 124°16'4 7.4
2018-Feb-22 21:26N 45°43' W 124°14'3 7.3
2018-Feb-22 21:00N 45°40' W 124°14'3 7.1
2018-Feb-22 20:30N 45°37' W 124°13'4 7.3
2018-Feb-22 19:57N 45°33' W 124°13'3 7.3
2018-Feb-22 19:30N 45°30' W 124°14'6 6.8
2018-Feb-22 18:39N 45°24' W 124°16'1 6.6
2018-Feb-22 18:30N 45°23' W 124°16'3 6.4
2018-Feb-22 18:00N 45°20' W 124°17'3 6.4
2018-Feb-22 17:29N 45°17' W 124°19'  
2018-Feb-20 10:41N 45°18' W 124°18'1 6.5
2018-Feb-20 10:30N 45°19' W 124°18'3 6.6
2018-Feb-20 10:00N 45°22' W 124°16'3 6.9
2018-Feb-20 09:30N 45°26' W 124°15'3 7.0
2018-Feb-20 09:00N 45°29' W 124°14'4 7.1
2018-Feb-20 08:30N 45°33' W 124°13'4 7.1
2018-Feb-20 08:00N 45°36' W 124°13'4 7.1
2018-Feb-20 07:30N 45°40' W 124°14'3 7.0
2018-Feb-20 07:00N 45°43' W 124°14'4 7.1
2018-Feb-20 06:30N 45°47' W 124°15'3 6.7
2018-Feb-20 06:01N 45°50' W 124°16'3 6.8
2018-Feb-20 05:31N 45°53' W 124°17'3 7.0
2018-Feb-20 05:00N 45°57' W 124°18'3 7.0
2018-Feb-20 04:30N 46°00' W 124°19'4 7.9
2018-Feb-20 04:00N 46°04' W 124°20'4 7.5
2018-Feb-20 03:30N 46°07' W 124°17'4 7.8
2018-Feb-20 03:00N 46°10' W 124°14'4 7.3
2018-Feb-20 02:31N 46°12' W 124°09'4 8.0
2018-Feb-20 02:01N 46°15' W 124°05'5 9.5
2018-Feb-20 01:30N 46°14' W 123°59'611.4
2018-Feb-20 01:00N 46°12' W 123°51'510.6
2018-Feb-20 00:31N 46°14' W 123°44'5 9.8
2018-Feb-20 00:00N 46°16' W 123°38'5 9.8
2018-Feb-19 23:30N 46°16' W 123°31'4 8.7
2018-Feb-19 23:00N 46°14' W 123°26'4 8.0
2018-Feb-19 22:30N 46°10' W 123°24'5 9.5
2018-Feb-19 22:00N 46°09' W 123°17'612.1
2018-Feb-19 21:30N 46°11' W 123°09'612.2
2018-Feb-19 21:00N 46°08' W 123°02'4 7.7
2018-Feb-19 20:30N 46°06' W 122°57'0 0.0
2018-Feb-19 19:59N 46°06' W 122°57'0 0.0
2018-Feb-19 18:58N 46°06' W 122°57'0 0.1
2018-Feb-19 18:10N 46°06' W 122°58'0 0.0
2018-Feb-19 18:01N 46°06' W 122°58'4 7.6
2018-Feb-19 17:30N 46°09' W 123°02'5 9.7
2018-Feb-19 17:00N 46°11' W 123°08'5 9.5
2018-Feb-19 16:30N 46°10' W 123°14'5 9.6
2018-Feb-19 16:00N 46°09' W 123°21'5 8.6
2018-Feb-19 15:28N 46°12' W 123°26'2 3.5
2018-Feb-19 14:59N 46°12' W 123°23'0 0.0
2018-Feb-19 14:26N 46°12' W 123°23'0 0.0
2018-Feb-19 13:59N 46°12' W 123°23'0 0.0
2018-Feb-19 13:23N 46°12' W 123°23'0 0.0
2018-Feb-19 12:59N 46°12' W 123°23'0 0.0
2018-Feb-19 12:29N 46°12' W 123°23'0 0.0
2018-Feb-19 11:59N 46°12' W 123°23'0 0.0
2018-Feb-19 10:48N 46°12' W 123°23'0 0.0
2018-Feb-19 10:30N 46°12' W 123°23'0 0.0
2018-Feb-19 10:00N 46°12' W 123°23'0 0.0
2018-Feb-19 09:01N 46°12' W 123°23'0 0.0
2018-Feb-19 09:01N 46°12' W 123°23'0 0.0
2018-Feb-19 08:25N 46°12' W 123°23'0 0.0
2018-Feb-19 07:42N 46°12' W 123°23'0 0.0
2018-Feb-19 07:26N 46°12' W 123°23'0 0.0
2018-Feb-19 06:55N 46°12' W 123°23'0 0.0
2018-Feb-19 06:28N 46°12' W 123°23'0 0.0
2018-Feb-19 05:55N 46°12' W 123°23'  
Track history (hours):
 
Tides and Currents Weather Stations Pressure Air Temp Water Temp Dewpoint Dewpoint Depression Visibility Wind Speed Wind Dir Waves Ship Positions

Edward Brusco

Owner: Brusco Tug & Barge, Inc., Longview, WA. More information available from US FCC via Universal Licensing System and Coast Guard Vessel Documentation Center.

Last reported at 2018-Feb-24 02:29 UTC. Time now 2018-Feb-25 17:41 UTC.
Position N 45°18' W 124°18'.

Length 37 m; draft 4.1 m.

Type: Tug. MMSI: 367002170.

Date/timePositionNaut miles runAvg speedWind from/ knotsBaromVisibWave heightAir tempDewpointWater temp
2018-Feb-24 02:29N 45°18' W 124°18'3 6.3
2018-Feb-24 02:00N 45°21' W 124°17'910.8
2018-Feb-24 01:11N 45°30' W 124°13'0 0.0
2018-Feb-24 00:48N 45°30' W 124°13'2 7.7
2018-Feb-24 00:30N 45°32' W 124°13'4 7.8
2018-Feb-24 00:00N 45°36' W 124°13'4 7.9
2018-Feb-23 23:30N 45°40' W 124°14'6 8.3
2018-Feb-23 22:45N 45°46' W 124°15'2 8.6
2018-Feb-23 22:31N 45°48' W 124°16'4 8.6
2018-Feb-23 22:00N 45°52' W 124°17'4 8.5
2018-Feb-23 21:30N 45°56' W 124°18'4 8.3
2018-Feb-23 21:00N 46°01' W 124°19'7 7.6
2018-Feb-23 20:07N 46°07' W 124°17'1 7.8
2018-Feb-23 20:00N 46°08' W 124°16'4 7.9
2018-Feb-23 19:30N 46°11' W 124°12'3 7.0
2018-Feb-23 19:00N 46°13' W 124°08'4 8.4
2018-Feb-23 18:31N 46°16' W 124°04'612.6
2018-Feb-23 18:00N 46°12' W 123°56'612.7
2018-Feb-23 17:30N 46°13' W 123°47'612.2
2018-Feb-23 17:01N 46°16' W 123°39'611.6
2018-Feb-23 16:30N 46°16' W 123°31'5 9.5
2018-Feb-23 16:00N 46°13' W 123°26'5 9.8
2018-Feb-23 15:30N 46°09' W 123°22'510.5
2018-Feb-23 15:00N 46°10' W 123°14'510.3
2018-Feb-23 14:30N 46°11' W 123°07'611.4
2018-Feb-23 14:01N 46°08' W 123°00'2 3.5
2018-Feb-23 13:30N 46°07' W 122°58'1 2.0
2018-Feb-23 13:01N 46°06' W 122°58'0 0.7
2018-Feb-23 12:31N 46°06' W 122°58'1 2.7
2018-Feb-23 12:01N 46°07' W 122°59'3 5.6
2018-Feb-23 11:31N 46°09' W 123°03'4 5.9
2018-Feb-23 10:47N 46°11' W 123°08'2 5.5
2018-Feb-23 10:23N 46°11' W 123°11'2 5.8
2018-Feb-23 10:00N 46°10' W 123°14'4 5.5
2018-Feb-23 09:15N 46°09' W 123°19'1 5.9
2018-Feb-23 09:01N 46°09' W 123°21'3 5.5
2018-Feb-23 08:31N 46°10' W 123°25'3 5.3
2018-Feb-23 08:00N 46°13' W 123°26'4 5.6
2018-Feb-23 07:16N 46°16' W 123°29'2 5.9
2018-Feb-23 07:00N 46°16' W 123°31'3 6.1
2018-Feb-23 06:26N 46°15' W 123°36'3 5.9
2018-Feb-23 06:00N 46°15' W 123°39'3 6.3
2018-Feb-23 05:30N 46°14' W 123°43'3 6.4
2018-Feb-23 05:00N 46°12' W 123°47'3 6.2
2018-Feb-23 04:30N 46°12' W 123°52'3 6.1
2018-Feb-23 04:01N 46°12' W 123°56'4 6.6
2018-Feb-23 03:27N 46°15' W 123°60'2 5.4
2018-Feb-23 03:01N 46°15' W 124°03'3 5.9
2018-Feb-23 02:29N 46°14' W 124°07'2 5.1
2018-Feb-23 02:00N 46°12' W 124°10'4 5.3
2018-Feb-23 01:16N 46°10' W 124°14'2 7.4
2018-Feb-23 01:00N 46°08' W 124°16'4 7.3
2018-Feb-23 00:30N 46°05' W 124°19'4 6.9
2018-Feb-22 23:54N 46°01' W 124°19'3 7.0
2018-Feb-22 23:30N 45°58' W 124°18'4 7.1
2018-Feb-22 23:01N 45°55' W 124°17'4 7.3
2018-Feb-22 22:30N 45°51' W 124°17'4 7.3
2018-Feb-22 22:00N 45°48' W 124°16'4 7.4
2018-Feb-22 21:26N 45°43' W 124°14'3 7.3
2018-Feb-22 21:00N 45°40' W 124°14'3 7.1
2018-Feb-22 20:30N 45°37' W 124°13'4 7.3
2018-Feb-22 19:57N 45°33' W 124°13'3 7.3
2018-Feb-22 19:30N 45°30' W 124°14'6 6.8
2018-Feb-22 18:39N 45°24' W 124°16'1 6.6
2018-Feb-22 18:30N 45°23' W 124°16'3 6.4
2018-Feb-22 18:00N 45°20' W 124°17'3 6.4
2018-Feb-22 17:29N 45°17' W 124°19'  
2018-Feb-20 10:41N 45°18' W 124°18'1 6.5
2018-Feb-20 10:30N 45°19' W 124°18'3 6.6
2018-Feb-20 10:00N 45°22' W 124°16'3 6.9
2018-Feb-20 09:30N 45°26' W 124°15'3 7.0
2018-Feb-20 09:00N 45°29' W 124°14'4 7.1
2018-Feb-20 08:30N 45°33' W 124°13'4 7.1
2018-Feb-20 08:00N 45°36' W 124°13'4 7.1
2018-Feb-20 07:30N 45°40' W 124°14'3 7.0
2018-Feb-20 07:00N 45°43' W 124°14'4 7.1
2018-Feb-20 06:30N 45°47' W 124°15'3 6.7
2018-Feb-20 06:01N 45°50' W 124°16'3 6.8
2018-Feb-20 05:31N 45°53' W 124°17'3 7.0
2018-Feb-20 05:00N 45°57' W 124°18'3 7.0
2018-Feb-20 04:30N 46°00' W 124°19'4 7.9
2018-Feb-20 04:00N 46°04' W 124°20'4 7.5
2018-Feb-20 03:30N 46°07' W 124°17'4 7.8
2018-Feb-20 03:00N 46°10' W 124°14'4 7.3
2018-Feb-20 02:31N 46°12' W 124°09'4 8.0
2018-Feb-20 02:01N 46°15' W 124°05'5 9.5
2018-Feb-20 01:30N 46°14' W 123°59'611.4
2018-Feb-20 01:00N 46°12' W 123°51'510.6
2018-Feb-20 00:31N 46°14' W 123°44'5 9.8
2018-Feb-20 00:00N 46°16' W 123°38'5 9.8
2018-Feb-19 23:30N 46°16' W 123°31'4 8.7
2018-Feb-19 23:00N 46°14' W 123°26'4 8.0
2018-Feb-19 22:30N 46°10' W 123°24'5 9.5
2018-Feb-19 22:00N 46°09' W 123°17'612.1
2018-Feb-19 21:30N 46°11' W 123°09'612.2
2018-Feb-19 21:00N 46°08' W 123°02'4 7.7
2018-Feb-19 20:30N 46°06' W 122°57'0 0.0
2018-Feb-19 19:59N 46°06' W 122°57'0 0.0
2018-Feb-19 18:58N 46°06' W 122°57'0 0.1
2018-Feb-19 18:10N 46°06' W 122°58'0 0.0
2018-Feb-19 18:01N 46°06' W 122°58'4 7.6
2018-Feb-19 17:30N 46°09' W 123°02'5 9.7
2018-Feb-19 17:00N 46°11' W 123°08'5 9.5
2018-Feb-19 16:30N 46°10' W 123°14'5 9.6
2018-Feb-19 16:00N 46°09' W 123°21'5 8.6
2018-Feb-19 15:28N 46°12' W 123°26'2 3.5
2018-Feb-19 14:59N 46°12' W 123°23'0 0.0
2018-Feb-19 14:26N 46°12' W 123°23'0 0.0
2018-Feb-19 13:59N 46°12' W 123°23'0 0.0
2018-Feb-19 13:23N 46°12' W 123°23'0 0.0
2018-Feb-19 12:59N 46°12' W 123°23'0 0.0
2018-Feb-19 12:29N 46°12' W 123°23'0 0.0
2018-Feb-19 11:59N 46°12' W 123°23'0 0.0
2018-Feb-19 10:48N 46°12' W 123°23'0 0.0
2018-Feb-19 10:30N 46°12' W 123°23'0 0.0
2018-Feb-19 10:00N 46°12' W 123°23'0 0.0
2018-Feb-19 09:01N 46°12' W 123°23'0 0.0
2018-Feb-19 09:01N 46°12' W 123°23'0 0.0
2018-Feb-19 08:25N 46°12' W 123°23'0 0.0
2018-Feb-19 07:42N 46°12' W 123°23'0 0.0
2018-Feb-19 07:26N 46°12' W 123°23'0 0.0
2018-Feb-19 06:55N 46°12' W 123°23'0 0.0
2018-Feb-19 06:28N 46°12' W 123°23'0 0.0
2018-Feb-19 05:55N 46°12' W 123°23'  

Dump ship's entire track history